Time;durP1;ratioP1;P1;durP2;ratioP2;P2;SDS_P1;SDS_P2;PMS_P1;PMS_P2;Temp;Humidity;BMP_temperature;BMP_pressure;BME280_temperature;BME280_humidity;BME280_pressure;Samples;Min_cycle;Max_cycle;Signal;HPM_P1;HPM_P2
2021/05/02 00:01:35;;;;;;;;;;;;;;;16.16;81.76;100706.88;1835278;78;20341;-75
2021/05/02 00:04:04;;;;;;;;;;;;;;;16.15;81.53;100694.73;1835116;78;20131;-74
2021/05/02 00:06:32;;;;;;;;;;;;;;;16.11;81.59;100703.38;1835129;78;21187;-75
2021/05/02 00:09:00;;;;;;;;;;;;;;;16.07;81.74;100703.28;1835047;78;20159;-74
2021/05/02 00:11:28;;;;;;;;;;;;;;;16.06;81.80;100696.86;1835143;78;20171;-74
2021/05/02 00:13:56;;;;;;;;;;;;;;;16.07;81.91;100703.77;1834991;78;20499;-74
2021/05/02 00:16:24;;;;;;;;;;;;;;;16.10;82.01;100704.80;1835045;78;20160;-75
2021/05/02 00:18:51;;;;;;;;;;;;;;;16.12;82.04;100705.00;1836996;78;21189;-74
2021/05/02 00:21:19;;;;;;;;;;;;;;;16.13;81.76;100713.21;1834929;78;20247;-74
2021/05/02 00:23:47;;;;;;;;;;;;;;;16.11;81.78;100707.30;1835082;78;20167;-74
2021/05/02 00:26:15;;;;;;;;;;;;;;;16.12;81.89;100698.45;1835319;78;20541;-74
2021/05/02 00:28:45;;;;;;;;;;;;;;;16.16;81.77;100692.47;1835037;78;20235;-74
2021/05/02 00:31:13;;;;;;;;;;;;;;;16.16;81.68;100682.83;1834678;78;21197;-74
2021/05/02 00:33:41;;;;;;;;;;;;;;;16.18;81.45;100685.30;1835107;78;20513;-74
2021/05/02 00:36:09;;;;;;;;;;;;;;;16.21;81.33;100686.36;1834977;78;20279;-74
2021/05/02 00:38:38;;;;;;;;;;;;;;;16.23;81.19;100676.57;1835255;78;20120;-74
2021/05/02 00:41:10;;;;;;;;;;;;;;;16.24;81.21;100679.03;1835184;78;20155;-74
2021/05/02 00:43:57;;;;;;;;;;;;;;;16.25;81.08;100683.80;1835269;78;21252;-74
2021/05/02 00:46:36;;;;;;;;;;;;;;;16.25;81.04;100686.41;1835034;78;20670;-75
2021/05/02 00:49:13;;;;;;;;;;;;;;;16.25;80.91;100688.55;1835235;78;20144;-78
2021/05/02 00:51:44;;;;;;;;;;;;;;;16.25;80.87;100691.17;1837363;78;20175;-76
2021/05/02 00:54:20;;;;;;;;;;;;;;;16.25;80.87;100704.27;1835009;78;20148;-76
2021/05/02 00:57:03;;;;;;;;;;;;;;;16.26;80.99;100704.63;1835053;78;21089;-76
2021/05/02 00:59:44;;;;;;;;;;;;;;;16.27;80.96;100704.94;1835074;78;20151;-76
2021/05/02 01:02:13;;;;;;;;;;;;;;;16.26;80.82;100691.53;1835083;78;20577;-77
2021/05/02 01:04:45;;;;;;;;;;;;;;;16.28;81.02;100684.83;1835052;78;20933;-74
2021/05/02 01:07:20;;;;;;;;;;;;;;;16.26;81.22;100682.84;1835186;78;20235;-74
2021/05/02 01:09:49;;;;;;;;;;;;;;;16.24;81.24;100682.96;1835175;78;21857;-75
2021/05/02 01:12:19;;;;;;;;;;;;;;;16.21;81.35;100683.23;1835167;78;20144;-75
2021/05/02 01:14:49;;;;;;;;;;;;;;;16.21;81.41;100686.36;1835137;78;20156;-75
2021/05/02 01:17:17;;;;;;;;;;;;;;;16.20;81.49;100689.94;1834921;78;20329;-74
2021/05/02 01:19:48;;;;;;;;;;;;;;;16.20;81.40;100700.41;1835027;78;20560;-75
2021/05/02 01:22:19;;;;;;;;;;;;;;;16.21;81.53;100688.98;1835173;78;21150;-74
2021/05/02 01:24:49;;;;;;;;;;;;;;;16.22;81.50;100677.05;1834980;78;20249;-75
2021/05/02 01:27:25;;;;;;;;;;;;;;;16.21;81.68;100685.85;1835099;78;20584;-75
2021/05/02 01:29:53;;;;;;;;;;;;;;;16.20;81.70;100683.39;1834840;78;20243;-75
2021/05/02 01:32:22;;;;;;;;;;;;;;;16.17;81.82;100671.41;1835214;78;20298;-74
2021/05/02 01:34:50;;;;;;;;;;;;;;;16.14;82.09;100674.30;1835205;78;21197;-75
2021/05/02 01:37:17;;;;;;;;;;;;;;;16.13;82.41;100662.64;1835003;78;20203;-75
2021/05/02 01:39:47;;;;;;;;;;;;;;;16.14;82.55;100652.05;1835160;78;20140;-75
2021/05/02 01:42:15;;;;;;;;;;;;;;;16.11;82.48;100633.99;1834930;78;20318;-76
2021/05/02 01:44:43;;;;;;;;;;;;;;;16.07;82.79;100623.44;1835122;78;20152;-75
2021/05/02 01:47:16;;;;;;;;;;;;;;;16.01;83.03;100627.92;1835017;78;21181;-75
2021/05/02 01:49:51;;;;;;;;;;;;;;;15.98;83.23;100650.44;1835136;78;20286;-75
2021/05/02 01:52:19;;;;;;;;;;;;;;;15.96;83.47;100641.05;1835004;78;20163;-75
2021/05/02 01:54:47;;;;;;;;;;;;;;;15.96;83.62;100639.73;1835212;78;20235;-75
2021/05/02 01:57:21;;;;;;;;;;;;;;;15.96;83.71;100653.66;1834938;78;20274;-74
2021/05/02 01:59:48;;;;;;;;;;;;;;;15.97;83.96;100638.78;1835152;78;21150;-76
2021/05/02 02:02:16;;;;;;;;;;;;;;;15.99;84.02;100653.86;1835000;78;20284;-76
2021/05/02 02:04:45;;;;;;;;;;;;;;;15.98;84.12;100660.08;1834965;78;20271;-76
2021/05/02 02:07:13;;;;;;;;;;;;;;;15.95;84.18;100666.89;1835127;78;20144;-75
2021/05/02 02:09:42;;;;;;;;;;;;;;;15.92;84.32;100666.69;1835007;78;20136;-75
2021/05/02 02:12:11;;;;;;;;;;;;;;;15.92;84.45;100637.91;1837260;78;20191;-76
2021/05/02 02:14:40;;;;;;;;;;;;;;;15.95;84.61;100636.80;1835097;78;20261;-76
2021/05/02 02:17:08;;;;;;;;;;;;;;;15.95;84.73;100655.95;1837057;78;20508;-75
2021/05/02 02:19:39;;;;;;;;;;;;;;;15.94;84.71;100639.89;1834780;78;20254;-75
2021/05/02 02:22:07;;;;;;;;;;;;;;;15.95;84.70;100664.28;1837175;78;20520;-75
2021/05/02 02:24:53;;;;;;;;;;;;;;;15.94;84.74;100652.14;1835019;78;21117;-75
2021/05/02 02:27:20;;;;;;;;;;;;;;;15.95;84.76;100648.09;1834844;78;20227;-75
2021/05/02 02:29:48;;;;;;;;;;;;;;;15.95;84.80;100659.88;1835010;78;20156;-75
2021/05/02 02:32:17;;;;;;;;;;;;;;;15.95;84.96;100670.82;1835099;78;20802;-75
2021/05/02 02:34:47;;;;;;;;;;;;;;;15.94;85.11;100651.66;1835067;78;20304;-75
2021/05/02 02:37:19;;;;;;;;;;;;;;;15.95;85.18;100655.95;1835012;78;22067;-75
2021/05/02 02:39:55;;;;;;;;;;;;;;;15.94;85.25;100645.12;1836948;78;20159;-75
2021/05/02 02:42:24;;;;;;;;;;;;;;;15.95;85.30;100638.94;1834875;78;20191;-76
2021/05/02 02:44:55;;;;;;;;;;;;;;;15.95;85.60;100627.63;1835018;78;20247;-76
2021/05/02 02:47:25;;;;;;;;;;;;;;;15.92;85.66;100625.30;1835098;78;20171;-76
2021/05/02 02:49:58;;;;;;;;;;;;;;;15.85;85.75;100628.45;1835288;78;22101;-76
2021/05/02 02:52:27;;;;;;;;;;;;;;;15.84;85.98;100619.42;1834181;78;20239;-74
2021/05/02 02:55:10;;;;;;;;;;;;;;;15.83;86.06;100604.67;1837072;78;20596;-75
2021/05/02 02:57:45;;;;;;;;;;;;;;;15.83;86.31;100589.80;1834978;78;20513;-74
2021/05/02 03:00:13;;;;;;;;;;;;;;;15.80;86.41;100603.16;1831934;78;20211;-75
2021/05/02 03:02:44;;;;;;;;;;;;;;;15.79;86.61;100598.88;1835199;78;21135;-75
2021/05/02 03:05:15;;;;;;;;;;;;;;;15.78;86.84;100606.87;1834562;78;20330;-74
2021/05/02 03:07:43;;;;;;;;;;;;;;;15.73;87.02;100607.78;1834913;78;20278;-75
2021/05/02 03:10:13;;;;;;;;;;;;;;;15.69;87.31;100599.37;1834939;78;20449;-75
2021/05/02 03:12:42;;;;;;;;;;;;;;;15.68;87.60;100597.70;1810004;78;20160;-74
2021/05/02 03:15:11;;;;;;;;;;;;;;;15.69;87.72;100599.84;1834953;78;21953;-74
2021/05/02 03:17:41;;;;;;;;;;;;;;;15.69;87.80;100606.39;1834735;78;20144;-75
2021/05/02 03:20:12;;;;;;;;;;;;;;;15.70;87.89;100605.41;1834880;78;20235;-75
2021/05/02 03:22:53;;;;;;;;;;;;;;;15.71;87.93;100584.83;1835047;78;20228;-76
2021/05/02 03:25:23;;;;;;;;;;;;;;;15.71;87.79;100588.28;1835286;78;20509;-74
2021/05/02 03:28:06;;;;;;;;;;;;;;;15.71;87.58;100601.84;1835192;78;21200;-75
2021/05/02 03:30:33;;;;;;;;;;;;;;;15.69;87.50;100596.76;1835161;78;20364;-75
2021/05/02 03:33:05;;;;;;;;;;;;;;;15.71;87.51;100595.30;1835123;78;20235;-74
2021/05/02 03:35:34;;;;;;;;;;;;;;;15.70;87.35;100614.08;1835112;78;20231;-74
2021/05/02 03:38:25;;;;;;;;;;;;;;;15.70;87.23;100618.48;1835182;78;20608;-75
2021/05/02 03:40:55;;;;;;;;;;;;;;;15.68;87.10;100629.58;1834767;78;21370;-74
2021/05/02 03:43:22;;;;;;;;;;;;;;;15.63;86.87;100633.92;1835193;78;20136;-75
2021/05/02 03:45:50;;;;;;;;;;;;;;;15.63;87.14;100621.31;1835100;78;20152;-76
2021/05/02 03:48:18;;;;;;;;;;;;;;;15.62;86.77;100619.17;1834964;78;20294;-74
2021/05/02 03:50:45;;;;;;;;;;;;;;;15.60;86.78;100628.93;1835104;78;20297;-75
2021/05/02 03:53:13;;;;;;;;;;;;;;;15.60;86.90;100622.39;1837070;78;21281;-75
2021/05/02 03:55:42;;;;;;;;;;;;;;;15.62;86.96;100620.48;1837301;78;20560;-75
2021/05/02 03:58:11;;;;;;;;;;;;;;;15.66;86.77;100634.13;1837189;78;20234;-74
2021/05/02 04:00:39;;;;;;;;;;;;;;;15.70;86.69;100622.41;1835332;78;20160;-75
2021/05/02 04:03:07;;;;;;;;;;;;;;;15.74;86.45;100595.02;1835715;78;20243;-76
2021/05/02 04:05:35;;;;;;;;;;;;;;;15.72;86.21;100589.94;1836064;78;21275;-75
2021/05/02 04:08:03;;;;;;;;;;;;;;;15.69;86.33;100601.98;1835453;78;20255;-76
2021/05/02 04:10:32;;;;;;;;;;;;;;;15.71;86.58;100610.99;1835670;78;20254;-77
2021/05/02 04:12:59;;;;;;;;;;;;;;;15.74;86.25;100598.47;1835849;78;20786;-76
2021/05/02 04:15:27;;;;;;;;;;;;;;;15.74;85.97;100585.86;1835443;78;20151;-75
2021/05/02 04:17:56;;;;;;;;;;;;;;;15.75;86.10;100591.45;1835283;78;21235;-75
2021/05/02 04:20:23;;;;;;;;;;;;;;;15.79;86.32;100585.80;1835116;78;20290;-76
2021/05/02 04:22:52;;;;;;;;;;;;;;;15.85;86.06;100572.19;1835119;78;20623;-75
2021/05/02 04:25:20;;;;;;;;;;;;;;;15.92;85.95;100582.11;1835071;78;20228;-74
2021/05/02 04:27:47;;;;;;;;;;;;;;;15.98;85.74;100585.48;1835180;78;20259;-75
2021/05/02 04:30:16;;;;;;;;;;;;;;;16.04;85.16;100580.52;1835119;78;22102;-75
2021/05/02 04:32:43;;;;;;;;;;;;;;;16.12;84.91;100557.09;1835136;78;20155;-75
2021/05/02 04:35:11;;;;;;;;;;;;;;;16.18;84.60;100547.84;1835066;78;20242;-75
2021/05/02 04:37:39;;;;;;;;;;;;;;;16.22;84.44;100571.48;1835060;78;20159;-75
2021/05/02 04:40:07;;;;;;;;;;;;;;;16.26;84.23;100585.95;1835155;78;20275;-75
2021/05/02 04:42:35;;;;;;;;;;;;;;;16.33;83.85;100588.36;1835179;78;21130;-75
2021/05/02 04:45:04;;;;;;;;;;;;;;;16.38;83.55;100595.30;1835012;78;20227;-76
2021/05/02 04:47:32;;;;;;;;;;;;;;;16.37;83.00;100619.83;1837058;78;20167;-75
2021/05/02 04:50:02;;;;;;;;;;;;;;;16.37;82.79;100602.81;1834982;78;20227;-75
2021/05/02 04:52:30;;;;;;;;;;;;;;;16.43;82.56;100578.20;1837429;78;20231;-74
2021/05/02 04:54:58;;;;;;;;;;;;;;;16.44;82.44;100569.86;1835191;78;21142;-75
2021/05/02 04:57:25;;;;;;;;;;;;;;;16.49;82.28;100541.95;1835143;78;20907;-75
2021/05/02 04:59:53;;;;;;;;;;;;;;;16.57;82.05;100536.84;1835293;78;20325;-75
2021/05/02 05:02:21;;;;;;;;;;;;;;;16.62;81.54;100533.33;1835190;78;20230;-76
2021/05/02 05:04:48;;;;;;;;;;;;;;;16.65;81.29;100519.46;1835410;78;20187;-76
2021/05/02 05:07:18;;;;;;;;;;;;;;;16.71;81.03;100508.41;1834962;78;21939;-76
2021/05/02 05:09:46;;;;;;;;;;;;;;;16.78;80.75;100509.96;1835113;78;20218;-75
2021/05/02 05:12:14;;;;;;;;;;;;;;;16.82;80.59;100525.23;1837099;78;20524;-77
2021/05/02 05:14:41;;;;;;;;;;;;;;;16.76;80.41;100550.71;1835119;78;20156;-75
2021/05/02 05:17:09;;;;;;;;;;;;;;;16.76;80.50;100568.23;1835089;78;20623;-75
2021/05/02 05:19:38;;;;;;;;;;;;;;;16.79;80.37;100564.84;1835198;78;22122;-75
2021/05/02 05:22:06;;;;;;;;;;;;;;;16.89;80.12;100566.94;1834789;78;20175;-74
2021/05/02 05:24:35;;;;;;;;;;;;;;;17.01;79.67;100566.27;1835247;78;20195;-74
2021/05/02 05:27:02;;;;;;;;;;;;;;;17.13;79.17;100570.38;1834801;78;20471;-74
2021/05/02 05:29:32;;;;;;;;;;;;;;;17.24;78.88;100565.40;1834999;78;20171;-74
2021/05/02 05:32:00;;;;;;;;;;;;;;;17.32;78.52;100557.16;1834933;78;21197;-75
2021/05/02 05:34:28;;;;;;;;;;;;;;;17.41;77.96;100554.96;1835105;78;20244;-75
2021/05/02 05:36:58;;;;;;;;;;;;;;;17.51;77.71;100550.14;1835008;78;20542;-75
2021/05/02 05:39:27;;;;;;;;;;;;;;;17.60;77.09;100547.48;1834989;78;20247;-75
2021/05/02 05:41:56;;;;;;;;;;;;;;;17.63;76.82;100556.84;1835217;78;20184;-75
2021/05/02 05:44:23;;;;;;;;;;;;;;;17.68;76.86;100554.59;1834939;78;21189;-74
2021/05/02 05:46:51;;;;;;;;;;;;;;;17.75;76.61;100543.84;1837037;78;20254;-75
2021/05/02 05:49:22;;;;;;;;;;;;;;;17.85;76.34;100530.16;1837130;78;20522;-75
2021/05/02 05:51:52;;;;;;;;;;;;;;;17.92;76.08;100535.97;1835122;78;20140;-76
2021/05/02 05:54:20;;;;;;;;;;;;;;;18.02;75.85;100525.39;1835104;78;20656;-75
2021/05/02 05:56:48;;;;;;;;;;;;;;;18.09;75.89;100514.61;1837196;78;22160;-75
2021/05/02 05:59:16;;;;;;;;;;;;;;;18.15;75.32;100523.19;1835133;78;20266;-75
2021/05/02 06:01:43;;;;;;;;;;;;;;;18.22;74.95;100525.52;1834996;78;20155;-76
2021/05/02 06:04:11;;;;;;;;;;;;;;;18.27;74.46;100524.58;1834819;78;20187;-76
2021/05/02 06:06:39;;;;;;;;;;;;;;;18.30;74.36;100519.02;1822448;78;20494;-75
2021/05/02 06:09:07;;;;;;;;;;;;;;;18.33;74.40;100518.72;1808282;79;21242;-76
2021/05/02 06:11:35;;;;;;;;;;;;;;;18.40;74.70;100510.55;1808647;78;20525;-77
2021/05/02 06:14:04;;;;;;;;;;;;;;;18.44;74.64;100505.30;1808405;78;20593;-75
2021/05/02 06:16:32;;;;;;;;;;;;;;;18.39;74.05;100525.97;1808350;78;20141;-76
2021/05/02 06:19:00;;;;;;;;;;;;;;;18.46;74.12;100524.87;1808162;78;20256;-75
2021/05/02 06:21:28;;;;;;;;;;;;;;;18.54;73.98;100530.19;1808248;79;22158;-75
2021/05/02 06:23:56;;;;;;;;;;;;;;;18.62;73.21;100555.70;1807991;79;20165;-75
2021/05/02 06:26:24;;;;;;;;;;;;;;;18.67;72.47;100571.34;1808250;79;20153;-75
2021/05/02 06:28:54;;;;;;;;;;;;;;;18.69;72.05;100583.86;1808298;79;20216;-76
2021/05/02 06:31:22;;;;;;;;;;;;;;;18.68;71.93;100566.42;1808252;79;20232;-75
2021/05/02 06:33:50;;;;;;;;;;;;;;;18.68;71.96;100562.48;1808118;79;21097;-75
2021/05/02 06:36:19;;;;;;;;;;;;;;;18.80;72.03;100561.23;1808250;79;20581;-76
2021/05/02 06:38:47;;;;;;;;;;;;;;;18.93;71.65;100541.91;1808298;78;20236;-75
2021/05/02 06:41:15;;;;;;;;;;;;;;;19.14;71.20;100543.31;1808021;78;20294;-75
2021/05/02 06:43:42;;;;;;;;;;;;;;;19.40;70.48;100535.68;1808241;79;20248;-75
2021/05/02 06:46:26;;;;;;;;;;;;;;;19.57;69.31;100521.23;1807928;79;21977;-75
2021/05/02 06:48:40;;;;;;;;;;;;;;;19.71;68.61;100517.49;1803708;79;20256;-74
2021/05/02 06:51:07;;;;;;;;;;;;;;;19.82;68.23;100513.20;1808108;79;20145;-75
2021/05/02 06:53:35;;;;;;;;;;;;;;;19.87;67.96;100524.09;1808199;79;20256;-75
2021/05/02 06:56:05;;;;;;;;;;;;;;;19.90;67.13;100543.51;1808399;78;20248;-76
2021/05/02 06:58:32;;;;;;;;;;;;;;;19.87;66.76;100545.16;1808424;79;22094;-75
2021/05/02 07:01:00;;;;;;;;;;;;;;;19.91;66.48;100538.55;1808369;79;20244;-78
2021/05/02 07:03:28;;;;;;;;;;;;;;;19.99;66.06;100541.69;1808521;79;20346;-76
2021/05/02 07:05:55;;;;;;;;;;;;;;;19.96;66.15;100537.58;1808884;78;20818;-76
2021/05/02 07:08:23;;;;;;;;;;;;;;;19.95;66.59;100531.97;1811698;79;20315;-75
2021/05/02 07:10:51;;;;;;;;;;;;;;;19.96;66.97;100536.27;1812123;79;21256;-79
2021/05/02 07:13:18;;;;;;;;;;;;;;;20.03;66.74;100541.21;1811963;79;20149;-75
2021/05/02 07:15:46;;;;;;;;;;;;;;;19.98;66.68;100543.98;1811993;79;20204;-76
2021/05/02 07:18:14;;;;;;;;;;;;;;;19.91;67.08;100545.66;1811585;79;20233;-75
2021/05/02 07:20:42;;;;;;;;;;;;;;;19.96;67.46;100544.66;1812022;79;20161;-74
2021/05/02 07:23:09;;;;;;;;;;;;;;;20.06;67.55;100538.73;1811995;79;21174;-75
2021/05/02 07:25:37;;;;;;;;;;;;;;;20.28;67.49;100536.77;1811784;79;20220;-75
2021/05/02 07:28:06;;;;;;;;;;;;;;;20.57;67.06;100538.86;1811795;79;20240;-75
2021/05/02 07:30:34;;;;;;;;;;;;;;;20.71;65.88;100538.67;1811719;79;20288;-75
2021/05/02 07:33:02;;;;;;;;;;;;;;;20.69;65.74;100535.36;1811860;79;20252;-76
2021/05/02 07:35:31;;;;;;;;;;;;;;;20.76;65.61;100539.80;1811831;79;21182;-75
2021/05/02 07:37:59;;;;;;;;;;;;;;;20.92;65.32;100541.07;1811575;79;20563;-75
2021/05/02 07:40:26;;;;;;;;;;;;;;;21.00;65.00;100534.42;1811700;79;20172;-75
2021/05/02 07:42:54;;;;;;;;;;;;;;;21.13;64.99;100534.40;1811715;79;20196;-76
2021/05/02 07:45:22;;;;;;;;;;;;;;;21.25;64.55;100533.05;1811837;79;20550;-75
2021/05/02 07:47:50;;;;;;;;;;;;;;;21.31;63.96;100531.86;1811876;79;21187;-75
2021/05/02 07:50:18;;;;;;;;;;;;;;;21.22;64.12;100537.34;1811885;79;20137;-74
2021/05/02 07:52:46;;;;;;;;;;;;;;;21.13;64.26;100531.27;1812106;79;20141;-75
2021/05/02 07:55:14;;;;;;;;;;;;;;;21.09;64.57;100529.98;1811691;79;20161;-77
2021/05/02 07:57:42;;;;;;;;;;;;;;;21.09;65.04;100516.80;1811917;79;20534;-78
2021/05/02 08:00:11;;;;;;;;;;;;;;;21.13;65.58;100518.08;1811646;79;21294;-75
2021/05/02 08:02:42;;;;;;;;;;;;;;;21.18;65.66;100513.12;1811843;79;20616;-75
2021/05/02 08:05:10;;;;;;;;;;;;;;;21.41;65.14;100507.34;1811845;79;20228;-76
2021/05/02 08:07:38;;;;;;;;;;;;;;;21.66;63.62;100499.28;1811568;78;20517;-75
2021/05/02 08:10:07;;;;;;;;;;;;;;;21.94;63.30;100492.48;1811846;79;20212;-74
2021/05/02 08:12:34;;;;;;;;;;;;;;;22.24;62.33;100484.91;1811959;79;21363;-76
2021/05/02 08:15:04;;;;;;;;;;;;;;;22.41;60.71;100475.81;1811796;79;20228;-75
2021/05/02 08:17:32;;;;;;;;;;;;;;;22.39;59.41;100479.65;1811694;79;20145;-76
2021/05/02 08:20:00;;;;;;;;;;;;;;;22.31;59.53;100485.01;1811680;79;20233;-74
2021/05/02 08:22:28;;;;;;;;;;;;;;;22.29;59.81;100489.67;1811868;79;20164;-75
2021/05/02 08:24:55;;;;;;;;;;;;;;;22.27;59.27;100479.29;1811676;79;21195;-76
2021/05/02 08:27:23;;;;;;;;;;;;;;;22.25;59.36;100478.63;1811556;79;20547;-76
2021/05/02 08:29:51;;;;;;;;;;;;;;;22.40;59.33;100481.30;1812019;79;20248;-74
2021/05/02 08:32:18;;;;;;;;;;;;;;;22.44;59.11;100471.48;1811703;79;20430;-77
2021/05/02 08:34:47;;;;;;;;;;;;;;;22.53;59.35;100465.59;1811540;79;20244;-75
2021/05/02 08:37:14;;;;;;;;;;;;;;;22.65;59.02;100461.50;1811626;79;21669;-74
2021/05/02 08:39:42;;;;;;;;;;;;;;;22.77;58.66;100463.20;1811865;79;20901;-75
2021/05/02 08:42:09;;;;;;;;;;;;;;;22.90;58.32;100462.05;1811748;79;20232;-75
2021/05/02 08:44:40;;;;;;;;;;;;;;;22.99;57.78;100460.42;1811649;79;20580;-75
2021/05/02 08:47:13;;;;;;;;;;;;;;;23.11;57.10;100462.90;1811648;79;20526;-76
2021/05/02 08:49:42;;;;;;;;;;;;;;;23.22;56.81;100468.22;1811814;79;21135;-74
2021/05/02 08:52:10;;;;;;;;;;;;;;;23.36;56.23;100458.06;1811710;79;20204;-75
2021/05/02 08:54:40;;;;;;;;;;;;;;;23.46;55.58;100453.30;1811732;79;20165;-77
2021/05/02 08:57:07;;;;;;;;;;;;;;;23.49;55.43;100458.22;1811628;79;20141;-76
2021/05/02 08:59:35;;;;;;;;;;;;;;;23.54;55.14;100450.55;1811634;79;20260;-76
2021/05/02 09:02:05;;;;;;;;;;;;;;;23.60;54.52;100448.95;1811826;79;21120;-75
2021/05/02 09:04:40;;;;;;;;;;;;;;;23.66;54.16;100442.39;1811759;79;20510;-76
2021/05/02 09:07:08;;;;;;;;;;;;;;;23.74;54.56;100438.77;1759227;79;20225;-76
2021/05/02 09:09:44;;;;;;;;;;;;;;;23.90;54.53;100433.72;1806741;79;20300;-75
2021/05/02 09:12:21;;;;;;;;;;;;;;;24.14;54.25;100432.79;1808119;79;20177;-75
2021/05/02 09:14:52;;;;;;;;;;;;;;;24.39;53.64;100439.77;1808260;78;20157;-74
2021/05/02 09:17:28;;;;;;;;;;;;;;;24.55;53.55;100435.96;1808180;79;20145;-75
2021/05/02 09:20:01;;;;;;;;;;;;;;;24.60;52.98;100440.19;1808198;79;20235;-76
2021/05/02 09:22:28;;;;;;;;;;;;;;;24.76;52.73;100439.31;1808236;79;20240;-76
2021/05/02 09:25:00;;;;;;;;;;;;;;;24.84;52.20;100434.39;1808273;79;20378;-75
2021/05/02 09:27:28;;;;;;;;;;;;;;;24.95;52.39;100437.80;1808516;78;22140;-74
2021/05/02 09:30:14;;;;;;;;;;;;;;;25.17;51.76;100433.98;1808170;78;20192;-74
2021/05/02 09:32:44;;;;;;;;;;;;;;;25.35;51.21;100434.71;1808229;79;20240;-73
2021/05/02 09:35:28;;;;;;;;;;;;;;;25.51;50.87;100432.20;1808139;79;20253;-76
2021/05/02 09:38:16;;;;;;;;;;;;;;;25.68;50.64;100426.80;1808234;79;20742;-77
2021/05/02 09:40:46;;;;;;;;;;;;;;;25.74;50.79;100418.83;1808358;79;21186;-76
2021/05/02 09:43:46;;;;;;;;;;;;;;;25.76;50.39;100414.11;1808058;79;20306;-74
2021/05/02 09:46:29;;;;;;;;;;;;;;;25.76;50.26;100407.47;1808372;79;20160;-75
2021/05/02 09:49:02;;;;;;;;;;;;;;;25.73;50.60;100423.00;1808087;79;38572;-76
2021/05/02 09:51:30;;;;;;;;;;;;;;;25.64;50.88;100417.09;1808201;78;20180;-75
2021/05/02 09:54:04;;;;;;;;;;;;;;;25.70;50.99;100414.12;1808139;79;21194;-75
2021/05/02 09:56:40;;;;;;;;;;;;;;;26.00;50.90;100418.49;1808319;78;20755;-75
2021/05/02 09:59:28;;;;;;;;;;;;;;;26.33;50.34;100417.92;1808082;78;20168;-75
2021/05/02 10:02:12;;;;;;;;;;;;;;;26.56;49.44;100407.61;1808316;78;20280;-75
2021/05/02 10:04:50;;;;;;;;;;;;;;;26.94;49.14;100410.83;1799894;79;20232;-75
2021/05/02 10:07:21;;;;;;;;;;;;;;;27.83;47.65;100402.09;1808184;78;21189;-77
2021/05/02 10:09:49;;;;;;;;;;;;;;;28.98;45.14;100411.88;1808200;78;20622;-75
2021/05/02 10:12:17;;;;;;;;;;;;;;;29.92;42.24;100415.07;1808282;78;20514;-77
2021/05/02 10:14:48;;;;;;;;;;;;;;;30.33;41.07;100404.72;1808040;78;20161;-76
2021/05/02 10:17:16;;;;;;;;;;;;;;;30.30;40.86;100404.67;1808569;78;20184;-75
2021/05/02 10:19:45;;;;;;;;;;;;;;;30.07;41.09;100410.57;1808283;78;21192;-76
2021/05/02 10:22:12;;;;;;;;;;;;;;;29.73;41.26;100409.00;1808182;78;20593;-81
2021/05/02 10:24:41;;;;;;;;;;;;;;;29.81;41.49;100403.80;1808063;78;20159;-77
2021/05/02 10:27:11;;;;;;;;;;;;;;;30.36;40.52;100406.40;1808099;79;20300;-76
2021/05/02 10:29:40;;;;;;;;;;;;;;;30.36;40.05;100410.41;1808117;79;20291;-75
2021/05/02 10:32:12;;;;;;;;;;;;;;;30.26;40.09;100406.70;1808397;78;21195;-77
2021/05/02 10:34:47;;;;;;;;;;;;;;;30.39;39.51;100405.95;1808492;78;20542;-75
2021/05/02 10:37:27;;;;;;;;;;;;;;;29.89;40.23;100407.52;1808714;79;20232;-76
2021/05/02 10:40:13;;;;;;;;;;;;;;;29.47;41.11;100409.43;1808190;79;20240;-75
2021/05/02 10:42:49;;;;;;;;;;;;;;;29.74;40.68;100399.12;1808539;79;20231;-76
2021/05/02 10:45:37;;;;;;;;;;;;;;;30.14;40.34;100396.03;1808377;79;21787;-76
2021/05/02 10:48:06;;;;;;;;;;;;;;;30.52;39.41;100387.47;1808302;78;20232;-77
2021/05/02 10:50:42;;;;;;;;;;;;;;;30.81;39.11;100386.94;1808391;79;20161;-75
2021/05/02 10:53:19;;;;;;;;;;;;;;;30.80;38.75;100388.80;1808394;79;20323;-76
2021/05/02 10:56:00;;;;;;;;;;;;;;;30.57;38.73;100386.77;1808448;79;20125;-76
2021/05/02 10:58:32;;;;;;;;;;;;;;;30.43;39.37;100383.02;1808518;79;21185;-76
2021/05/02 11:01:02;;;;;;;;;;;;;;;30.56;38.76;100377.09;1808194;78;20182;-76
2021/05/02 11:03:39;;;;;;;;;;;;;;;30.78;39.42;100375.37;1808546;79;20161;-76
2021/05/02 11:06:14;;;;;;;;;;;;;;;31.19;38.95;100369.69;1808463;78;20188;-76
2021/05/02 11:08:49;;;;;;;;;;;;;;;31.43;38.74;100372.48;1810820;78;20248;-77
2021/05/02 11:11:35;;;;;;;;;;;;;;;31.70;37.86;100360.59;1811687;79;20172;-76
2021/05/02 11:14:12;;;;;;;;;;;;;;;31.73;37.89;100355.25;1811695;79;20208;-77
2021/05/02 11:16:43;;;;;;;;;;;;;;;31.71;38.09;100348.00;1811983;79;20133;-78
2021/05/02 11:19:26;;;;;;;;;;;;;;;31.85;37.52;100344.70;1811800;79;20172;-76
2021/05/02 11:22:02;;;;;;;;;;;;;;;31.90;37.28;100343.97;1811711;79;20165;-74
2021/05/02 11:24:26;;;;;;;;;;;;;;;31.93;37.11;100338.09;1810712;79;21368;-80
2021/05/02 11:30:04;;;;;;;;;;;;;;;32.15;36.54;100338.13;1812175;79;20201;-77
2021/05/02 11:32:36;;;;;;;;;;;;;;;31.96;36.68;100326.34;1811904;79;20248;-76
2021/05/02 11:35:11;;;;;;;;;;;;;;;31.42;37.38;100328.50;1811671;79;20247;-76
2021/05/02 11:37:54;;;;;;;;;;;;;;;31.24;38.09;100321.50;1812120;79;22196;-80
2021/05/02 11:40:34;;;;;;;;;;;;;;;31.72;39.12;100314.19;1811877;79;20618;-77
2021/05/02 11:43:13;;;;;;;;;;;;;;;32.49;37.70;100310.86;1811647;79;20235;-80
2021/05/02 11:45:50;;;;;;;;;;;;;;;32.92;37.08;100318.55;1811813;79;20256;-82
2021/05/02 11:48:24;;;;;;;;;;;;;;;32.98;36.16;100318.87;1812353;79;20208;-77
2021/05/02 11:50:55;;;;;;;;;;;;;;;32.63;36.20;100319.36;1812346;79;21196;-78
2021/05/02 11:53:36;;;;;;;;;;;;;;;32.27;37.39;100316.80;1811797;79;20141;-76
2021/05/02 11:56:17;;;;;;;;;;;;;;;31.98;37.94;100313.99;1811884;79;20311;-78
2021/05/02 11:58:45;;;;;;;;;;;;;;;31.88;38.03;100307.16;1811899;79;20169;-76
2021/05/02 12:01:17;;;;;;;;;;;;;;;32.03;37.83;100306.55;1811926;79;20248;-78
2021/05/02 12:03:45;;;;;;;;;;;;;;;32.04;38.11;100306.87;1811747;79;21412;-78
2021/05/02 12:06:21;;;;;;;;;;;;;;;31.73;38.92;100301.06;1811899;79;20765;-76
2021/05/02 12:08:50;;;;;;;;;;;;;;;31.91;39.56;100299.41;1809778;78;20240;-77
2021/05/02 12:11:17;;;;;;;;;;;;;;;32.63;38.09;100299.73;1808543;79;20752;-79
2021/05/02 12:13:54;;;;;;;;;;;;;;;33.13;37.26;100290.78;1808535;79;20582;-79
2021/05/02 12:16:24;;;;;;;;;;;;;;;33.03;36.49;100292.58;1808756;79;21354;-79
2021/05/02 12:18:57;;;;;;;;;;;;;;;32.78;37.36;100295.84;1808537;78;20137;-79
2021/05/02 12:21:35;;;;;;;;;;;;;;;32.52;38.07;100293.97;1806239;79;20310;-75
2021/05/02 12:24:07;;;;;;;;;;;;;;;32.33;38.26;100289.45;1808648;79;20244;-74
2021/05/02 12:26:36;;;;;;;;;;;;;;;32.31;38.81;100288.37;1808446;79;20553;-77
2021/05/02 12:29:06;;;;;;;;;;;;;;;32.73;38.28;100284.53;1808248;79;21173;-80
2021/05/02 12:31:35;;;;;;;;;;;;;;;33.56;36.34;100272.77;1808430;79;20268;-77
2021/05/02 12:34:07;;;;;;;;;;;;;;;34.17;35.00;100276.58;1808472;78;20228;-77
2021/05/02 12:36:35;;;;;;;;;;;;;;;34.57;34.58;100269.91;1808536;79;20256;-77
2021/05/02 12:39:12;;;;;;;;;;;;;;;35.08;34.39;100273.44;1808320;78;20208;-76
2021/05/02 12:41:41;;;;;;;;;;;;;;;35.71;32.85;100272.55;1809125;79;22122;-76
2021/05/02 12:44:14;;;;;;;;;;;;;;;35.87;32.56;100264.09;1808480;78;20482;-77
2021/05/02 12:46:49;;;;;;;;;;;;;;;36.26;32.57;100276.34;1808406;78;20502;-76
2021/05/02 12:49:26;;;;;;;;;;;;;;;36.76;31.20;100285.23;1808176;79;20240;-75
2021/05/02 12:52:05;;;;;;;;;;;;;;;36.77;31.33;100282.22;1808436;78;20307;-76
2021/05/02 12:54:36;;;;;;;;;;;;;;;36.27;31.09;100276.61;1808521;78;21188;-77
2021/05/02 12:57:12;;;;;;;;;;;;;;;36.16;31.75;100279.64;1808355;78;20141;-76